createdAt,value
2022-10-08T00:02:15.206Z,72.60
2022-10-08T00:04:42.197Z,72.80
2022-10-08T00:07:09.181Z,72.80
2022-10-08T00:09:36.006Z,72.80
2022-10-08T00:12:03.310Z,72.90
2022-10-08T00:14:30.256Z,73.00
2022-10-08T00:16:57.608Z,73.00
2022-10-08T00:19:24.637Z,73.30
2022-10-08T00:21:56.998Z,73.10
2022-10-08T00:24:24.457Z,73.20
2022-10-08T00:26:52.434Z,73.30
2022-10-08T00:29:21.836Z,73.40
2022-10-08T00:31:50.571Z,73.40
2022-10-08T00:34:23.320Z,73.50
2022-10-08T00:36:55.254Z,73.60
2022-10-08T00:39:24.703Z,73.80
2022-10-08T00:41:54.282Z,73.80
2022-10-08T00:44:54.448Z,73.90
2022-10-08T00:47:33.525Z,74.40
2022-10-08T00:50:29.022Z,74.30
2022-10-08T00:53:03.593Z,74.00
2022-10-08T00:55:33.229Z,74.20
2022-10-08T00:58:07.481Z,74.10
2022-10-08T01:00:34.411Z,74.30
2022-10-08T01:03:03.818Z,74.40
2022-10-08T01:05:56.925Z,74.50
2022-10-08T01:08:54.635Z,75.10
2022-10-08T01:11:33.074Z,74.90
2022-10-08T01:14:28.467Z,75.00
2022-10-08T01:17:22.922Z,74.70
2022-10-08T01:20:30.159Z,74.90
2022-10-08T01:23:09.441Z,74.70
2022-10-08T01:26:03.189Z,74.50
2022-10-08T01:28:52.481Z,75.70
2022-10-08T01:31:31.160Z,75.20
2022-10-08T01:34:10.125Z,74.80
2022-10-08T01:36:44.395Z,74.90
2022-10-08T01:39:17.588Z,75.10
2022-10-08T01:41:52.827Z,75.10
2022-10-08T01:44:35.841Z,75.10
2022-10-08T01:47:07.820Z,75.10
2022-10-08T01:49:43.833Z,75.20
2022-10-08T01:52:22.085Z,75.40
2022-10-08T01:54:52.096Z,75.50
2022-10-08T01:57:19.040Z,75.50
2022-10-08T01:59:54.986Z,75.50
2022-10-08T02:02:24.705Z,75.60
2022-10-08T02:04:54.500Z,75.70
2022-10-08T02:07:25.564Z,75.60
2022-10-08T02:10:05.028Z,75.90
2022-10-08T02:12:32.967Z,76.10
2022-10-08T02:15:00.564Z,76.40
2022-10-08T02:18:06.386Z,76.70
2022-10-08T02:20:43.070Z,77.60
2022-10-08T02:23:38.996Z,77.20
2022-10-08T02:26:10.517Z,78.20
2022-10-08T02:29:00.687Z,77.80
2022-10-08T02:31:54.875Z,78.40
2022-10-08T02:34:57.403Z,78.70
2022-10-08T02:37:44.218Z,78.60
2022-10-08T02:40:16.042Z,78.30
2022-10-08T02:42:50.979Z,78.00
2022-10-08T02:45:24.366Z,78.00
2022-10-08T02:48:02.286Z,78.20
2022-10-08T02:50:30.588Z,78.20
2022-10-08T02:52:58.562Z,78.00
2022-10-08T02:55:57.009Z,78.00
2022-10-08T02:58:24.666Z,78.60
2022-10-08T03:01:07.536Z,78.20
2022-10-08T03:03:44.174Z,78.40
2022-10-08T03:06:11.627Z,78.40
2022-10-08T03:08:46.366Z,78.60
2022-10-08T03:11:14.122Z,78.10
2022-10-08T03:13:48.747Z,78.10
2022-10-08T03:16:21.472Z,78.20
2022-10-08T03:18:52.311Z,78.30
2022-10-08T03:21:19.464Z,78.20
2022-10-08T03:23:46.476Z,78.30
2022-10-08T03:26:18.789Z,78.40
2022-10-08T03:28:46.133Z,78.50
2022-10-08T03:31:13.099Z,78.40
2022-10-08T03:33:40.472Z,78.50
2022-10-08T03:36:07.530Z,78.60
2022-10-08T03:38:35.189Z,78.60
2022-10-08T03:41:02.539Z,78.70
2022-10-08T03:43:34.128Z,78.70
2022-10-08T03:46:06.427Z,78.80
2022-10-08T03:48:33.440Z,78.70
2022-10-08T03:51:04.754Z,78.70
2022-10-08T03:53:37.468Z,78.80
2022-10-08T03:56:11.755Z,79.00
2022-10-08T03:58:39.187Z,79.00
2022-10-08T04:01:16.329Z,79.10
2022-10-08T04:03:45.284Z,79.30
2022-10-08T04:06:13.256Z,79.10
2022-10-08T04:08:40.196Z,79.30
2022-10-08T04:11:09.832Z,79.30
2022-10-08T04:13:37.880Z,79.30
2022-10-08T04:16:13.194Z,79.40
2022-10-08T04:18:41.160Z,79.20
2022-10-08T04:21:12.248Z,79.10
2022-10-08T04:23:40.877Z,79.10
2022-10-08T04:26:10.324Z,79.00
2022-10-08T04:28:40.145Z,79.00
2022-10-08T04:31:11.346Z,79.00
2022-10-08T04:33:38.688Z,78.90
2022-10-08T04:36:30.673Z,78.90
2022-10-08T04:38:57.710Z,78.90
2022-10-08T04:41:28.041Z,78.90
2022-10-08T04:44:01.257Z,79.00
2022-10-08T04:46:28.963Z,79.20
2022-10-08T04:48:57.288Z,79.10
2022-10-08T04:51:26.319Z,79.20
2022-10-08T04:53:55.176Z,79.30
2022-10-08T04:56:25.401Z,79.20
2022-10-08T04:58:55.401Z,79.20
2022-10-08T05:01:23.110Z,79.20
2022-10-08T05:03:52.774Z,79.10
2022-10-08T05:06:23.982Z,79.00
2022-10-08T05:08:51.337Z,78.90
2022-10-08T05:11:19.432Z,78.90
2022-10-08T05:13:51.217Z,78.90
2022-10-08T05:16:19.304Z,79.10
2022-10-08T05:18:46.876Z,79.00
2022-10-08T05:21:17.908Z,78.90
2022-10-08T05:24:11.329Z,78.80
2022-10-08T05:26:57.632Z,78.50
2022-10-08T05:29:25.516Z,78.60
2022-10-08T05:31:52.240Z,78.80
2022-10-08T05:34:19.301Z,78.50
2022-10-08T05:36:46.653Z,78.10
2022-10-08T05:39:13.753Z,78.70
2022-10-08T05:41:41.371Z,79.00
2022-10-08T05:44:10.865Z,79.20
2022-10-08T05:46:38.891Z,79.60
2022-10-08T05:49:08.506Z,79.90
2022-10-08T05:51:36.205Z,79.90
2022-10-08T05:54:03.132Z,79.90
2022-10-08T05:56:31.650Z,80.00
2022-10-08T05:58:58.488Z,80.00
2022-10-08T06:01:31.643Z,80.10
2022-10-08T06:04:09.085Z,80.10
2022-10-08T06:06:41.563Z,80.10
2022-10-08T06:09:12.499Z,80.10
2022-10-08T06:11:39.906Z,79.90
2022-10-08T06:14:09.853Z,79.90
2022-10-08T06:16:36.822Z,79.90
2022-10-08T06:19:05.982Z,79.90
2022-10-08T06:21:33.277Z,80.00
2022-10-08T06:24:03.937Z,80.10
2022-10-08T06:26:36.150Z,80.20
2022-10-08T06:29:09.952Z,80.40
2022-10-08T06:34:27.782Z,80.60
2022-10-08T06:36:54.850Z,80.70
2022-10-08T06:39:21.805Z,80.70
2022-10-08T06:41:48.732Z,81.10
2022-10-08T06:44:15.896Z,81.30
2022-10-08T06:46:43.246Z,81.20
2022-10-08T06:49:11.721Z,81.10
2022-10-08T06:51:38.592Z,81.10
2022-10-08T06:54:08.266Z,80.90
2022-10-08T06:56:38.143Z,80.90
2022-10-08T06:59:06.317Z,80.70
2022-10-08T07:01:34.806Z,80.70
2022-10-08T07:04:04.047Z,80.60
2022-10-08T07:06:30.930Z,80.70
2022-10-08T07:09:00.994Z,80.80
2022-10-08T07:11:29.053Z,81.20
2022-10-08T07:13:56.971Z,81.50
2022-10-08T07:16:26.781Z,81.70
2022-10-08T07:18:56.131Z,81.70
2022-10-08T07:21:23.266Z,81.20
2022-10-08T07:23:51.051Z,80.30
2022-10-08T07:26:23.661Z,79.50
2022-10-08T07:29:04.812Z,78.90
2022-10-08T07:31:35.826Z,78.30
2022-10-08T07:34:06.901Z,77.70
2022-10-08T07:36:34.754Z,77.60
2022-10-08T07:39:05.600Z,78.10
2022-10-08T07:41:33.761Z,78.70
2022-10-08T07:44:02.471Z,79.00
2022-10-08T07:46:35.152Z,78.80
2022-10-08T07:49:04.801Z,78.30
2022-10-08T07:51:34.074Z,77.80
2022-10-08T07:54:03.160Z,76.70
2022-10-08T07:56:33.453Z,75.60
2022-10-08T07:59:01.504Z,73.60
2022-10-08T08:01:30.168Z,72.00
2022-10-08T08:04:07.733Z,70.10
2022-10-08T08:06:40.910Z,67.30
2022-10-08T08:09:08.200Z,63.70
2022-10-08T08:11:35.437Z,62.10
2022-10-08T08:14:07.963Z,60.90
2022-10-08T08:16:34.877Z,59.70
2022-10-08T08:19:02.934Z,59.10
2022-10-08T08:21:33.641Z,58.90
2022-10-08T08:24:12.788Z,58.70
2022-10-08T08:26:42.213Z,58.10
2022-10-08T08:29:13.608Z,58.50
2022-10-08T08:31:44.008Z,57.50
2022-10-08T08:34:15.905Z,56.60
2022-10-08T08:36:47.063Z,55.80
2022-10-08T08:39:21.910Z,54.40
2022-10-08T08:42:28.035Z,53.80
2022-10-08T08:45:02.900Z,52.10
2022-10-08T08:47:39.572Z,51.40
2022-10-08T08:50:26.057Z,49.90
2022-10-08T08:52:53.109Z,49.40
2022-10-08T08:55:29.551Z,48.80
2022-10-08T08:58:21.742Z,48.20
2022-10-08T09:01:11.380Z,49.10
2022-10-08T09:03:52.119Z,46.40
2022-10-08T09:06:26.166Z,45.10
2022-10-08T09:09:14.032Z,45.40
2022-10-08T09:11:44.080Z,44.80
2022-10-08T09:14:11.814Z,45.30
2022-10-08T09:16:39.572Z,44.10
2022-10-08T09:19:09.012Z,43.30
2022-10-08T09:21:36.170Z,41.70
2022-10-08T09:24:03.377Z,40.70
2022-10-08T09:26:35.525Z,39.80
2022-10-08T09:29:04.824Z,39.70
2022-10-08T09:31:48.161Z,38.40
2022-10-08T09:34:20.018Z,38.20
2022-10-08T09:37:04.142Z,38.20
2022-10-08T09:39:34.995Z,38.00
2022-10-08T09:42:17.479Z,38.00
2022-10-08T09:44:58.967Z,37.60
2022-10-08T09:47:27.129Z,37.00
2022-10-08T09:50:14.387Z,37.30
2022-10-08T09:52:41.678Z,36.70
2022-10-08T09:55:18.445Z,37.10
2022-10-08T09:57:54.011Z,37.10
2022-10-08T10:00:36.676Z,36.80
2022-10-08T10:03:06.387Z,36.50
2022-10-08T10:05:37.350Z,36.80
2022-10-08T10:08:04.719Z,36.90
2022-10-08T10:10:41.024Z,37.30
2022-10-08T10:13:39.035Z,37.50
2022-10-08T10:16:11.815Z,37.60
2022-10-08T10:19:08.718Z,38.10
2022-10-08T10:21:52.577Z,38.60
2022-10-08T10:24:46.229Z,39.10
2022-10-08T10:27:24.570Z,39.60
2022-10-08T10:30:21.013Z,40.00
2022-10-08T10:33:25.853Z,40.70
2022-10-08T10:36:06.442Z,41.10
2022-10-08T10:38:43.321Z,41.30
2022-10-08T10:45:15.080Z,42.10
2022-10-08T10:47:42.163Z,42.70
2022-10-08T10:50:42.810Z,43.10
2022-10-08T10:53:38.945Z,43.40
2022-10-08T10:56:14.917Z,44.00
2022-10-08T10:59:31.116Z,44.50
2022-10-08T11:02:58.840Z,44.90
2022-10-08T11:05:29.292Z,45.60
2022-10-08T11:08:19.947Z,46.30
2022-10-08T11:11:17.789Z,46.70
2022-10-08T11:14:06.218Z,47.40
2022-10-08T11:16:47.894Z,47.80
2022-10-08T11:19:57.783Z,48.20
2022-10-08T11:23:03.373Z,48.80
2022-10-08T11:26:02.060Z,49.80
2022-10-08T11:29:00.173Z,49.50
2022-10-08T11:31:44.683Z,49.80
2022-10-08T11:34:30.005Z,50.20
2022-10-08T11:37:26.840Z,50.50
2022-10-08T11:40:31.017Z,50.90
2022-10-08T11:43:36.797Z,51.10
2022-10-08T11:46:36.695Z,51.70
2022-10-08T11:49:25.182Z,52.40
2022-10-08T11:51:53.509Z,53.70
2022-10-08T11:54:38.439Z,54.10
2022-10-08T11:57:55.832Z,55.50
2022-10-08T12:00:33.204Z,56.90
2022-10-08T12:03:01.246Z,57.80
2022-10-08T12:05:46.680Z,58.50
2022-10-08T12:08:51.692Z,59.60
2022-10-08T12:11:37.591Z,59.90
2022-10-08T12:14:16.916Z,61.40
2022-10-08T12:16:56.272Z,62.30
2022-10-08T12:19:35.381Z,63.00
2022-10-08T12:22:27.572Z,64.00
2022-10-08T12:24:59.353Z,64.10
2022-10-08T12:27:37.469Z,65.20
2022-10-08T12:30:20.058Z,65.60
2022-10-08T12:33:13.148Z,65.60
2022-10-08T12:36:20.195Z,65.00
2022-10-08T12:39:20.329Z,65.50
2022-10-08T12:41:58.622Z,64.90
2022-10-08T12:44:42.751Z,64.60
2022-10-08T12:48:00.136Z,64.00
2022-10-08T12:50:56.561Z,64.00
2022-10-08T12:53:23.809Z,63.40
2022-10-08T12:55:55.942Z,63.30
2022-10-08T12:58:29.500Z,63.30
2022-10-08T13:01:00.581Z,62.80
2022-10-08T13:03:27.976Z,62.30
2022-10-08T13:05:58.386Z,62.20
2022-10-08T13:08:38.974Z,62.10
2022-10-08T13:11:09.895Z,61.10
2022-10-08T13:13:39.820Z,61.50
2022-10-08T13:16:22.718Z,61.30
2022-10-08T13:18:57.504Z,60.70
2022-10-08T13:21:37.081Z,60.00
2022-10-08T13:24:13.069Z,58.70
2022-10-08T13:26:46.087Z,58.00
2022-10-08T13:29:22.108Z,56.20
2022-10-08T13:32:12.540Z,53.50
2022-10-08T13:34:39.543Z,52.20
2022-10-08T13:37:09.811Z,52.50
2022-10-08T13:39:49.898Z,49.80
2022-10-08T13:42:19.477Z,48.50
2022-10-08T13:44:46.765Z,47.60
2022-10-08T13:50:12.196Z,44.30
2022-10-08T13:52:49.397Z,43.70
2022-10-08T13:55:32.792Z,42.40
2022-10-08T13:58:02.365Z,42.40
2022-10-08T14:00:33.024Z,42.40
2022-10-08T14:03:00.016Z,41.80
2022-10-08T14:05:30.509Z,40.90
2022-10-08T14:08:29.520Z,40.00
2022-10-08T14:11:00.673Z,38.30
2022-10-08T14:13:29.554Z,38.60
2022-10-08T14:15:56.903Z,38.60
2022-10-08T14:18:23.743Z,38.90
2022-10-08T14:20:53.403Z,39.40
2022-10-08T14:23:22.003Z,39.70
2022-10-08T14:25:49.302Z,40.00
2022-10-08T14:28:41.450Z,40.40
2022-10-08T14:31:12.530Z,41.00
2022-10-08T14:33:39.610Z,41.50
2022-10-08T14:36:24.162Z,41.80
2022-10-08T14:38:53.152Z,42.50
2022-10-08T14:41:20.010Z,42.60
2022-10-08T14:43:47.201Z,43.10
2022-10-08T14:46:14.356Z,43.40
2022-10-08T14:48:41.473Z,43.80
2022-10-08T14:51:08.297Z,44.20
2022-10-08T14:53:35.785Z,44.70
2022-10-08T14:56:12.162Z,46.50
2022-10-08T14:58:40.311Z,49.60
2022-10-08T15:01:07.379Z,51.20
2022-10-08T15:03:34.377Z,52.70
2022-10-08T15:06:01.356Z,53.50
2022-10-08T15:08:28.909Z,52.70
2022-10-08T15:10:55.735Z,52.90
2022-10-08T15:13:22.961Z,52.90
2022-10-08T15:15:49.821Z,53.00
2022-10-08T15:18:16.885Z,53.40
2022-10-08T15:20:43.705Z,53.60
2022-10-08T15:23:10.974Z,53.80
2022-10-08T15:25:38.405Z,53.90
2022-10-08T15:28:05.680Z,54.50
2022-10-08T15:30:32.735Z,54.70
2022-10-08T15:33:04.701Z,55.00
2022-10-08T15:35:35.908Z,55.20
2022-10-08T15:38:03.081Z,54.90
2022-10-08T15:40:31.946Z,54.80
2022-10-08T15:42:59.693Z,54.80
2022-10-08T15:45:27.387Z,54.90
2022-10-08T15:47:54.943Z,55.10
2022-10-08T15:50:22.062Z,55.30
2022-10-08T15:53:06.386Z,55.70
2022-10-08T15:55:34.144Z,55.80
2022-10-08T15:58:01.491Z,56.10
2022-10-08T16:00:28.548Z,56.30
2022-10-08T16:02:55.842Z,56.60
2022-10-08T16:05:22.673Z,57.00
2022-10-08T16:07:49.453Z,57.20
2022-10-08T16:10:16.762Z,57.40
2022-10-08T16:13:08.914Z,57.80
2022-10-08T16:15:39.125Z,57.90
2022-10-08T16:18:05.971Z,58.30
2022-10-08T16:20:35.217Z,58.50
2022-10-08T16:23:02.202Z,58.60
2022-10-08T16:28:24.656Z,58.80
2022-10-08T16:30:51.632Z,59.00
2022-10-08T16:33:26.756Z,59.10
2022-10-08T16:35:55.061Z,59.10
2022-10-08T16:38:23.042Z,59.20
2022-10-08T16:40:53.416Z,59.40
2022-10-08T16:43:20.243Z,59.50
2022-10-08T16:45:47.501Z,59.60
2022-10-08T16:48:14.527Z,59.70
2022-10-08T16:50:42.220Z,59.70
2022-10-08T16:53:10.268Z,59.70
2022-10-08T16:55:38.596Z,59.80
2022-10-08T16:58:06.192Z,59.70
2022-10-08T17:00:35.689Z,59.80
2022-10-08T17:03:03.995Z,60.00
2022-10-08T17:05:30.800Z,60.00
2022-10-08T17:07:57.833Z,60.00
2022-10-08T17:10:24.734Z,60.20
2022-10-08T17:12:52.244Z,60.20
2022-10-08T17:15:19.084Z,60.30
2022-10-08T17:17:46.681Z,60.40
2022-10-08T17:20:13.748Z,60.40
2022-10-08T17:22:41.111Z,60.60
2022-10-08T17:25:08.793Z,60.70
2022-10-08T17:27:35.641Z,60.70
2022-10-08T17:30:02.513Z,60.90
2022-10-08T17:32:29.770Z,61.20
2022-10-08T17:34:56.649Z,61.30
2022-10-08T17:37:23.772Z,61.60
2022-10-08T17:39:50.662Z,61.60
2022-10-08T17:42:17.511Z,61.90
2022-10-08T17:44:44.342Z,62.90
2022-10-08T17:47:11.472Z,62.40
2022-10-08T17:52:29.310Z,63.20
2022-10-08T17:54:56.248Z,63.10
2022-10-08T18:00:16.462Z,63.90
2022-10-08T18:02:43.335Z,64.10
2022-10-08T18:05:10.423Z,64.50
2022-10-08T18:07:37.605Z,64.90
2022-10-08T18:10:05.925Z,65.10
2022-10-08T18:12:37.020Z,65.40
2022-10-08T18:15:05.829Z,65.50
2022-10-08T18:17:32.897Z,65.90
2022-10-08T18:20:00.214Z,66.00
2022-10-08T18:22:27.053Z,66.40
2022-10-08T18:24:54.464Z,66.60
2022-10-08T18:27:21.437Z,67.10
2022-10-08T18:29:48.416Z,67.20
2022-10-08T18:32:15.247Z,67.50
2022-10-08T18:34:42.382Z,67.70
2022-10-08T18:37:09.169Z,67.90
2022-10-08T18:39:36.381Z,68.20
2022-10-08T18:42:03.401Z,68.30
2022-10-08T18:44:30.437Z,68.50
2022-10-08T18:46:59.655Z,68.50
2022-10-08T18:49:30.825Z,69.00
2022-10-08T18:51:59.223Z,69.30
2022-10-08T18:54:26.204Z,69.40
2022-10-08T18:56:55.166Z,69.60
2022-10-08T18:59:22.173Z,69.80
2022-10-08T19:01:49.191Z,70.00
2022-10-08T19:04:20.769Z,70.30
2022-10-08T19:06:50.315Z,70.50
2022-10-08T19:09:17.252Z,70.40
2022-10-08T19:11:51.940Z,70.90
2022-10-08T19:14:21.121Z,71.10
2022-10-08T19:16:48.689Z,71.10
2022-10-08T19:19:24.088Z,71.30
2022-10-08T19:22:17.433Z,71.60
2022-10-08T19:25:09.676Z,71.40
2022-10-08T19:27:36.583Z,71.60
2022-10-08T19:30:04.045Z,71.70
2022-10-08T19:32:36.325Z,71.80
2022-10-08T19:35:03.572Z,71.80
2022-10-08T19:37:30.837Z,71.80
2022-10-08T19:40:05.626Z,72.10
2022-10-08T19:42:32.591Z,72.20
2022-10-08T19:44:59.381Z,72.20
2022-10-08T19:47:26.417Z,72.30
2022-10-08T19:49:53.298Z,72.50
2022-10-08T19:52:20.271Z,72.60
2022-10-08T19:54:47.333Z,72.70
2022-10-08T19:57:14.170Z,72.80
2022-10-08T19:59:41.279Z,72.80
2022-10-08T20:02:10.282Z,73.00
2022-10-08T20:04:37.358Z,73.00
2022-10-08T20:07:04.440Z,73.00
2022-10-08T20:09:31.612Z,73.00
2022-10-08T20:11:58.427Z,73.10
2022-10-08T20:14:25.446Z,73.10
2022-10-08T20:16:52.412Z,73.20
2022-10-08T20:19:44.642Z,73.10
2022-10-08T20:22:12.065Z,73.20
2022-10-08T20:24:39.329Z,73.20
2022-10-08T20:27:06.141Z,73.30
2022-10-08T20:29:33.652Z,73.20
2022-10-08T20:32:00.732Z,73.20
2022-10-08T20:34:31.074Z,73.20
2022-10-08T20:37:01.419Z,73.30
2022-10-08T20:39:28.929Z,73.30
2022-10-08T20:41:56.333Z,73.30
2022-10-08T20:44:23.182Z,73.20
2022-10-08T20:46:51.187Z,73.30
2022-10-08T20:49:18.451Z,73.30
2022-10-08T20:51:45.302Z,73.20
2022-10-08T20:54:15.588Z,72.80
2022-10-08T20:56:43.025Z,73.00
2022-10-08T20:59:16.816Z,72.90
2022-10-08T21:01:44.509Z,72.90
2022-10-08T21:04:11.358Z,72.80
2022-10-08T21:06:42.520Z,72.70
2022-10-08T21:09:10.078Z,72.60
2022-10-08T21:11:38.654Z,72.40
2022-10-08T21:14:09.687Z,72.50
2022-10-08T21:16:39.808Z,72.40
2022-10-08T21:19:11.693Z,72.40
2022-10-08T21:21:39.437Z,72.40
2022-10-08T21:24:07.327Z,72.30
2022-10-08T21:26:40.383Z,72.30
2022-10-08T21:29:11.291Z,72.30
2022-10-08T21:31:40.456Z,72.30
2022-10-08T21:34:07.981Z,72.20
2022-10-08T21:36:38.817Z,72.30
2022-10-08T21:39:08.264Z,72.30
2022-10-08T21:41:37.413Z,72.30
2022-10-08T21:44:07.619Z,72.40
2022-10-08T21:46:38.497Z,72.30
2022-10-08T21:49:10.313Z,72.50
2022-10-08T21:51:38.434Z,72.80
2022-10-08T21:54:06.843Z,72.70
2022-10-08T21:56:37.808Z,72.80
2022-10-08T21:59:07.231Z,73.00
2022-10-08T22:01:57.656Z,73.00
2022-10-08T22:04:25.486Z,73.20
2022-10-08T22:06:55.254Z,73.20
2022-10-08T22:09:26.137Z,73.30
2022-10-08T22:11:57.398Z,73.40
2022-10-08T22:14:24.941Z,73.70
2022-10-08T22:16:51.880Z,73.90
2022-10-08T22:19:19.793Z,74.00
2022-10-08T22:21:47.354Z,74.30
2022-10-08T22:24:14.561Z,74.40
2022-10-08T22:26:45.317Z,74.50
2022-10-08T22:29:13.187Z,74.70
2022-10-08T22:31:40.274Z,74.70
2022-10-08T22:34:07.490Z,74.70
2022-10-08T22:36:42.255Z,75.00
2022-10-08T22:39:09.849Z,75.00
2022-10-08T22:41:37.427Z,75.00
2022-10-08T22:44:05.290Z,75.00
2022-10-08T22:46:37.924Z,75.20
2022-10-08T22:49:09.817Z,75.20
2022-10-08T22:51:37.253Z,75.30
2022-10-08T22:54:06.980Z,75.30
2022-10-08T22:56:33.969Z,75.40
2022-10-08T22:59:01.304Z,75.40
2022-10-08T23:01:29.965Z,75.30
2022-10-08T23:03:57.829Z,76.10
2022-10-08T23:06:31.688Z,75.40
2022-10-08T23:09:01.966Z,75.50
2022-10-08T23:11:31.497Z,75.40
2022-10-08T23:13:59.738Z,75.30
2022-10-08T23:16:29.399Z,75.40
2022-10-08T23:19:02.182Z,75.30
2022-10-08T23:21:29.189Z,75.20
2022-10-08T23:23:56.938Z,75.30
2022-10-08T23:26:25.054Z,75.30
2022-10-08T23:28:55.127Z,75.30
2022-10-08T23:31:26.733Z,75.30
2022-10-08T23:33:55.054Z,75.20
2022-10-08T23:36:31.864Z,75.20
2022-10-08T23:38:59.376Z,75.20
2022-10-08T23:41:27.254Z,75.30
2022-10-08T23:43:55.970Z,75.40
2022-10-08T23:46:28.074Z,75.50
2022-10-08T23:48:55.688Z,75.60
2022-10-08T23:51:24.156Z,75.60
2022-10-08T23:53:52.839Z,75.50
2022-10-08T23:56:20.766Z,75.60
2022-10-08T23:58:52.149Z,75.60
